sensor_id;sensor_type;location;lat;lon;timestamp;P1;durP1;ratioP1;P2;durP2;ratioP2
40164;SDS011;25882;51.120;17.248;2023-08-24T00:00:48;8.32;;;5.10;;
40164;SDS011;25882;51.120;17.248;2023-08-24T00:03:31;8.38;;;4.82;;
40164;SDS011;25882;51.120;17.248;2023-08-24T00:05:58;6.93;;;4.82;;
40164;SDS011;25882;51.120;17.248;2023-08-24T00:08:24;6.63;;;4.68;;
40164;SDS011;25882;51.120;17.248;2023-08-24T00:10:50;8.40;;;4.90;;
40164;SDS011;25882;51.120;17.248;2023-08-24T00:13:16;7.25;;;4.90;;
40164;SDS011;25882;51.120;17.248;2023-08-24T00:15:44;6.45;;;4.80;;
40164;SDS011;25882;51.120;17.248;2023-08-24T00:18:10;8.48;;;5.00;;
40164;SDS011;25882;51.120;17.248;2023-08-24T00:20:36;9.63;;;5.05;;
40164;SDS011;25882;51.120;17.248;2023-08-24T00:23:03;6.63;;;4.38;;
40164;SDS011;25882;51.120;17.248;2023-08-24T00:25:29;9.77;;;4.25;;
40164;SDS011;25882;51.120;17.248;2023-08-24T00:27:55;9.57;;;4.75;;
40164;SDS011;25882;51.120;17.248;2023-08-24T00:30:22;6.03;;;4.65;;
40164;SDS011;25882;51.120;17.248;2023-08-24T00:32:50;6.43;;;4.72;;
40164;SDS011;25882;51.120;17.248;2023-08-24T00:35:16;6.80;;;4.70;;
40164;SDS011;25882;51.120;17.248;2023-08-24T00:37:42;6.97;;;4.30;;
40164;SDS011;25882;51.120;17.248;2023-08-24T00:40:08;6.07;;;4.22;;
40164;SDS011;25882;51.120;17.248;2023-08-24T00:42:37;5.65;;;4.43;;
40164;SDS011;25882;51.120;17.248;2023-08-24T00:45:04;7.03;;;4.93;;
40164;SDS011;25882;51.120;17.248;2023-08-24T00:47:30;8.07;;;4.95;;
40164;SDS011;25882;51.120;17.248;2023-08-24T00:49:58;12.32;;;5.82;;
40164;SDS011;25882;51.120;17.248;2023-08-24T00:52:25;9.40;;;5.90;;
40164;SDS011;25882;51.120;17.248;2023-08-24T00:54:51;7.10;;;5.40;;
40164;SDS011;25882;51.120;17.248;2023-08-24T00:57:17;7.07;;;5.30;;
40164;SDS011;25882;51.120;17.248;2023-08-24T00:59:43;8.48;;;5.88;;
40164;SDS011;25882;51.120;17.248;2023-08-24T01:02:09;7.22;;;5.13;;
40164;SDS011;25882;51.120;17.248;2023-08-24T01:04:36;9.55;;;4.07;;
40164;SDS011;25882;51.120;17.248;2023-08-24T01:07:03;8.20;;;5.38;;
40164;SDS011;25882;51.120;17.248;2023-08-24T01:09:29;6.38;;;5.05;;
40164;SDS011;25882;51.120;17.248;2023-08-24T01:11:58;9.25;;;5.25;;
40164;SDS011;25882;51.120;17.248;2023-08-24T01:14:30;10.60;;;6.00;;
40164;SDS011;25882;51.120;17.248;2023-08-24T01:16:59;15.40;;;6.60;;
40164;SDS011;25882;51.120;17.248;2023-08-24T01:19:32;12.77;;;5.90;;
40164;SDS011;25882;51.120;17.248;2023-08-24T01:22:05;11.52;;;6.18;;
40164;SDS011;25882;51.120;17.248;2023-08-24T01:24:36;7.32;;;5.07;;
40164;SDS011;25882;51.120;17.248;2023-08-24T01:27:07;9.10;;;4.82;;
40164;SDS011;25882;51.120;17.248;2023-08-24T01:29:34;7.95;;;4.97;;
40164;SDS011;25882;51.120;17.248;2023-08-24T01:32:00;8.10;;;4.95;;
40164;SDS011;25882;51.120;17.248;2023-08-24T01:34:26;10.10;;;5.32;;
40164;SDS011;25882;51.120;17.248;2023-08-24T01:36:52;8.32;;;5.63;;
40164;SDS011;25882;51.120;17.248;2023-08-24T01:39:20;9.68;;;5.65;;
40164;SDS011;25882;51.120;17.248;2023-08-24T01:42:00;8.82;;;5.55;;
40164;SDS011;25882;51.120;17.248;2023-08-24T01:44:29;13.70;;;5.78;;
40164;SDS011;25882;51.120;17.248;2023-08-24T01:46:58;13.97;;;6.97;;
40164;SDS011;25882;51.120;17.248;2023-08-24T01:49:26;11.73;;;5.75;;
40164;SDS011;25882;51.120;17.248;2023-08-24T01:51:53;9.57;;;4.63;;
40164;SDS011;25882;51.120;17.248;2023-08-24T01:54:20;11.48;;;5.00;;
40164;SDS011;25882;51.120;17.248;2023-08-24T01:56:46;10.15;;;5.88;;
40164;SDS011;25882;51.120;17.248;2023-08-24T01:59:11;5.32;;;4.35;;
40164;SDS011;25882;51.120;17.248;2023-08-24T02:01:45;5.63;;;4.72;;
40164;SDS011;25882;51.120;17.248;2023-08-24T02:04:11;7.82;;;5.10;;
40164;SDS011;25882;51.120;17.248;2023-08-24T02:06:38;7.97;;;5.30;;
40164;SDS011;25882;51.120;17.248;2023-08-24T02:09:06;6.55;;;5.60;;
40164;SDS011;25882;51.120;17.248;2023-08-24T02:11:32;8.88;;;5.68;;
40164;SDS011;25882;51.120;17.248;2023-08-24T02:13:58;10.90;;;6.40;;
40164;SDS011;25882;51.120;17.248;2023-08-24T02:16:32;6.82;;;5.50;;
40164;SDS011;25882;51.120;17.248;2023-08-24T02:19:00;8.35;;;5.03;;
40164;SDS011;25882;51.120;17.248;2023-08-24T02:21:26;9.98;;;5.90;;
40164;SDS011;25882;51.120;17.248;2023-08-24T02:23:53;7.65;;;5.47;;
40164;SDS011;25882;51.120;17.248;2023-08-24T02:26:18;7.93;;;5.40;;
40164;SDS011;25882;51.120;17.248;2023-08-24T02:28:46;6.82;;;5.43;;
40164;SDS011;25882;51.120;17.248;2023-08-24T02:31:12;10.93;;;6.10;;
40164;SDS011;25882;51.120;17.248;2023-08-24T02:33:38;9.00;;;6.05;;
40164;SDS011;25882;51.120;17.248;2023-08-24T02:36:06;6.68;;;5.10;;
40164;SDS011;25882;51.120;17.248;2023-08-24T02:38:32;8.98;;;5.68;;
40164;SDS011;25882;51.120;17.248;2023-08-24T02:41:01;8.70;;;6.25;;
40164;SDS011;25882;51.120;17.248;2023-08-24T02:43:28;8.90;;;5.83;;
40164;SDS011;25882;51.120;17.248;2023-08-24T02:45:58;9.63;;;6.85;;
40164;SDS011;25882;51.120;17.248;2023-08-24T02:48:25;13.73;;;6.45;;
40164;SDS011;25882;51.120;17.248;2023-08-24T02:50:51;9.98;;;6.03;;
40164;SDS011;25882;51.120;17.248;2023-08-24T02:53:18;9.52;;;6.05;;
40164;SDS011;25882;51.120;17.248;2023-08-24T02:55:44;6.28;;;4.00;;
40164;SDS011;25882;51.120;17.248;2023-08-24T02:58:10;5.60;;;3.70;;
40164;SDS011;25882;51.120;17.248;2023-08-24T03:00:37;6.68;;;3.92;;
40164;SDS011;25882;51.120;17.248;2023-08-24T03:03:03;8.20;;;4.60;;
40164;SDS011;25882;51.120;17.248;2023-08-24T03:05:31;7.28;;;5.22;;
40164;SDS011;25882;51.120;17.248;2023-08-24T03:07:58;8.95;;;6.22;;
40164;SDS011;25882;51.120;17.248;2023-08-24T03:10:25;11.60;;;5.85;;
40164;SDS011;25882;51.120;17.248;2023-08-24T03:12:51;11.07;;;5.75;;
40164;SDS011;25882;51.120;17.248;2023-08-24T03:15:16;7.18;;;5.70;;
40164;SDS011;25882;51.120;17.248;2023-08-24T03:17:42;6.55;;;5.18;;
40164;SDS011;25882;51.120;17.248;2023-08-24T03:20:09;8.00;;;5.03;;
40164;SDS011;25882;51.120;17.248;2023-08-24T03:22:36;6.82;;;5.45;;
40164;SDS011;25882;51.120;17.248;2023-08-24T03:25:02;7.13;;;4.80;;
40164;SDS011;25882;51.120;17.248;2023-08-24T03:27:30;10.23;;;5.00;;
40164;SDS011;25882;51.120;17.248;2023-08-24T03:29:56;6.75;;;5.55;;
40164;SDS011;25882;51.120;17.248;2023-08-24T03:32:22;7.80;;;4.97;;
40164;SDS011;25882;51.120;17.248;2023-08-24T03:34:48;8.68;;;4.88;;
40164;SDS011;25882;51.120;17.248;2023-08-24T03:37:15;7.20;;;5.10;;
40164;SDS011;25882;51.120;17.248;2023-08-24T03:39:40;11.07;;;6.13;;
40164;SDS011;25882;51.120;17.248;2023-08-24T03:42:07;8.50;;;6.32;;
40164;SDS011;25882;51.120;17.248;2023-08-24T03:44:34;8.48;;;5.75;;
40164;SDS011;25882;51.120;17.248;2023-08-24T03:47:00;10.95;;;5.63;;
40164;SDS011;25882;51.120;17.248;2023-08-24T03:49:26;8.50;;;5.22;;
40164;SDS011;25882;51.120;17.248;2023-08-24T03:51:52;6.95;;;4.72;;
40164;SDS011;25882;51.120;17.248;2023-08-24T03:54:18;11.38;;;7.03;;
40164;SDS011;25882;51.120;17.248;2023-08-24T03:56:44;11.25;;;5.90;;
40164;SDS011;25882;51.120;17.248;2023-08-24T03:59:10;8.02;;;5.55;;
40164;SDS011;25882;51.120;17.248;2023-08-24T04:01:37;10.13;;;5.88;;
40164;SDS011;25882;51.120;17.248;2023-08-24T04:04:03;8.18;;;5.53;;
40164;SDS011;25882;51.120;17.248;2023-08-24T04:06:29;6.03;;;4.72;;
40164;SDS011;25882;51.120;17.248;2023-08-24T04:08:56;8.90;;;4.85;;
40164;SDS011;25882;51.120;17.248;2023-08-24T04:11:22;7.30;;;5.43;;
40164;SDS011;25882;51.120;17.248;2023-08-24T04:13:48;10.02;;;5.68;;
40164;SDS011;25882;51.120;17.248;2023-08-24T04:16:14;6.55;;;4.63;;
40164;SDS011;25882;51.120;17.248;2023-08-24T04:18:41;6.45;;;5.40;;
40164;SDS011;25882;51.120;17.248;2023-08-24T04:21:07;6.13;;;4.65;;
40164;SDS011;25882;51.120;17.248;2023-08-24T04:23:33;6.00;;;4.80;;
40164;SDS011;25882;51.120;17.248;2023-08-24T04:26:00;6.38;;;4.22;;
40164;SDS011;25882;51.120;17.248;2023-08-24T04:28:25;7.82;;;4.97;;
40164;SDS011;25882;51.120;17.248;2023-08-24T04:30:53;7.03;;;5.68;;
40164;SDS011;25882;51.120;17.248;2023-08-24T04:33:19;8.80;;;5.65;;
40164;SDS011;25882;51.120;17.248;2023-08-24T04:35:47;8.15;;;4.93;;
40164;SDS011;25882;51.120;17.248;2023-08-24T04:38:14;13.88;;;5.05;;
40164;SDS011;25882;51.120;17.248;2023-08-24T04:40:48;16.45;;;5.95;;
40164;SDS011;25882;51.120;17.248;2023-08-24T04:43:16;14.48;;;6.05;;
40164;SDS011;25882;51.120;17.248;2023-08-24T04:45:42;8.32;;;5.90;;
40164;SDS011;25882;51.120;17.248;2023-08-24T04:48:08;8.85;;;5.55;;
40164;SDS011;25882;51.120;17.248;2023-08-24T04:50:34;7.97;;;6.03;;
40164;SDS011;25882;51.120;17.248;2023-08-24T04:53:01;7.00;;;5.38;;
40164;SDS011;25882;51.120;17.248;2023-08-24T04:55:28;7.70;;;5.10;;
40164;SDS011;25882;51.120;17.248;2023-08-24T04:57:54;6.85;;;5.40;;
40164;SDS011;25882;51.120;17.248;2023-08-24T05:00:20;8.30;;;4.80;;
40164;SDS011;25882;51.120;17.248;2023-08-24T05:02:46;8.45;;;4.85;;
40164;SDS011;25882;51.120;17.248;2023-08-24T05:05:13;10.02;;;5.95;;
40164;SDS011;25882;51.120;17.248;2023-08-24T05:07:39;10.88;;;5.03;;
40164;SDS011;25882;51.120;17.248;2023-08-24T05:10:08;7.55;;;4.85;;
40164;SDS011;25882;51.120;17.248;2023-08-24T05:12:34;8.98;;;5.35;;
40164;SDS011;25882;51.120;17.248;2023-08-24T05:15:01;8.73;;;5.10;;
40164;SDS011;25882;51.120;17.248;2023-08-24T05:17:27;7.38;;;4.72;;
40164;SDS011;25882;51.120;17.248;2023-08-24T05:19:54;7.22;;;4.90;;
40164;SDS011;25882;51.120;17.248;2023-08-24T05:22:20;8.38;;;5.85;;
40164;SDS011;25882;51.120;17.248;2023-08-24T05:24:46;7.93;;;5.50;;
40164;SDS011;25882;51.120;17.248;2023-08-24T05:27:14;10.15;;;5.97;;
40164;SDS011;25882;51.120;17.248;2023-08-24T05:29:41;9.27;;;5.70;;
40164;SDS011;25882;51.120;17.248;2023-08-24T05:32:07;11.82;;;7.28;;
40164;SDS011;25882;51.120;17.248;2023-08-24T05:34:33;11.13;;;5.85;;
40164;SDS011;25882;51.120;17.248;2023-08-24T05:36:59;16.85;;;6.53;;
40164;SDS011;25882;51.120;17.248;2023-08-24T05:39:25;12.65;;;6.25;;
40164;SDS011;25882;51.120;17.248;2023-08-24T05:41:52;8.77;;;6.00;;
40164;SDS011;25882;51.120;17.248;2023-08-24T05:44:19;8.30;;;6.25;;
40164;SDS011;25882;51.120;17.248;2023-08-24T05:46:46;11.95;;;6.20;;
40164;SDS011;25882;51.120;17.248;2023-08-24T05:49:12;9.18;;;7.10;;
40164;SDS011;25882;51.120;17.248;2023-08-24T05:51:40;10.77;;;7.40;;
40164;SDS011;25882;51.120;17.248;2023-08-24T05:54:06;10.13;;;6.65;;
40164;SDS011;25882;51.120;17.248;2023-08-24T05:56:32;17.13;;;7.82;;
40164;SDS011;25882;51.120;17.248;2023-08-24T05:58:59;14.45;;;8.60;;
40164;SDS011;25882;51.120;17.248;2023-08-24T06:01:26;13.27;;;8.68;;
40164;SDS011;25882;51.120;17.248;2023-08-24T06:03:52;11.35;;;8.48;;
40164;SDS011;25882;51.120;17.248;2023-08-24T06:06:18;13.75;;;9.02;;
40164;SDS011;25882;51.120;17.248;2023-08-24T06:08:45;13.40;;;8.30;;
40164;SDS011;25882;51.120;17.248;2023-08-24T06:11:10;10.80;;;7.85;;
40164;SDS011;25882;51.120;17.248;2023-08-24T06:13:37;11.98;;;8.07;;
40164;SDS011;25882;51.120;17.248;2023-08-24T06:16:03;13.25;;;9.32;;
40164;SDS011;25882;51.120;17.248;2023-08-24T06:18:31;11.88;;;8.68;;
40164;SDS011;25882;51.120;17.248;2023-08-24T06:20:58;12.23;;;7.97;;
40164;SDS011;25882;51.120;17.248;2023-08-24T06:23:24;11.68;;;7.47;;
40164;SDS011;25882;51.120;17.248;2023-08-24T06:25:51;12.57;;;7.78;;
40164;SDS011;25882;51.120;17.248;2023-08-24T06:28:18;12.75;;;7.57;;
40164;SDS011;25882;51.120;17.248;2023-08-24T06:30:44;9.75;;;7.03;;
40164;SDS011;25882;51.120;17.248;2023-08-24T06:33:12;14.55;;;7.40;;
40164;SDS011;25882;51.120;17.248;2023-08-24T06:35:40;11.82;;;6.40;;
40164;SDS011;25882;51.120;17.248;2023-08-24T06:38:06;9.23;;;6.50;;
40164;SDS011;25882;51.120;17.248;2023-08-24T06:40:32;12.25;;;7.25;;
40164;SDS011;25882;51.120;17.248;2023-08-24T06:42:59;10.40;;;6.55;;
40164;SDS011;25882;51.120;17.248;2023-08-24T06:45:25;10.13;;;6.13;;
40164;SDS011;25882;51.120;17.248;2023-08-24T06:47:51;10.18;;;6.45;;
40164;SDS011;25882;51.120;17.248;2023-08-24T06:50:18;7.63;;;5.72;;
40164;SDS011;25882;51.120;17.248;2023-08-24T06:52:47;10.52;;;6.05;;
40164;SDS011;25882;51.120;17.248;2023-08-24T06:55:13;9.73;;;5.50;;
40164;SDS011;25882;51.120;17.248;2023-08-24T06:57:41;10.77;;;5.80;;
40164;SDS011;25882;51.120;17.248;2023-08-24T07:00:11;8.95;;;5.90;;
40164;SDS011;25882;51.120;17.248;2023-08-24T07:02:40;10.38;;;5.90;;
40164;SDS011;25882;51.120;17.248;2023-08-24T07:05:06;12.20;;;6.10;;
40164;SDS011;25882;51.120;17.248;2023-08-24T07:07:34;9.77;;;5.50;;
40164;SDS011;25882;51.120;17.248;2023-08-24T07:10:01;7.53;;;5.05;;
40164;SDS011;25882;51.120;17.248;2023-08-24T07:12:29;12.13;;;4.85;;
40164;SDS011;25882;51.120;17.248;2023-08-24T07:14:55;6.75;;;5.05;;
40164;SDS011;25882;51.120;17.248;2023-08-24T07:17:21;9.13;;;5.32;;
40164;SDS011;25882;51.120;17.248;2023-08-24T07:19:47;8.00;;;4.40;;
40164;SDS011;25882;51.120;17.248;2023-08-24T07:22:13;8.60;;;4.60;;
40164;SDS011;25882;51.120;17.248;2023-08-24T07:24:39;9.85;;;4.18;;
40164;SDS011;25882;51.120;17.248;2023-08-24T07:27:07;9.85;;;4.00;;
40164;SDS011;25882;51.120;17.248;2023-08-24T07:29:34;9.20;;;4.43;;
40164;SDS011;25882;51.120;17.248;2023-08-24T07:32:00;7.93;;;3.60;;
40164;SDS011;25882;51.120;17.248;2023-08-24T07:34:27;7.63;;;4.40;;
40164;SDS011;25882;51.120;17.248;2023-08-24T07:36:55;10.02;;;3.85;;
40164;SDS011;25882;51.120;17.248;2023-08-24T07:39:21;8.82;;;3.50;;
40164;SDS011;25882;51.120;17.248;2023-08-24T07:41:47;6.60;;;3.42;;
40164;SDS011;25882;51.120;17.248;2023-08-24T07:44:15;6.45;;;3.05;;
40164;SDS011;25882;51.120;17.248;2023-08-24T07:46:41;8.98;;;3.70;;
40164;SDS011;25882;51.120;17.248;2023-08-24T07:49:07;4.63;;;3.60;;
40164;SDS011;25882;51.120;17.248;2023-08-24T07:51:33;8.18;;;4.95;;
40164;SDS011;25882;51.120;17.248;2023-08-24T07:53:59;8.68;;;3.65;;
40164;SDS011;25882;51.120;17.248;2023-08-24T07:56:26;10.05;;;3.42;;
40164;SDS011;25882;51.120;17.248;2023-08-24T07:58:52;7.47;;;5.13;;
40164;SDS011;25882;51.120;17.248;2023-08-24T08:01:20;10.30;;;5.60;;
40164;SDS011;25882;51.120;17.248;2023-08-24T08:03:46;7.28;;;3.40;;
40164;SDS011;25882;51.120;17.248;2023-08-24T08:06:12;7.80;;;3.50;;
40164;SDS011;25882;51.120;17.248;2023-08-24T08:08:39;5.40;;;3.10;;
40164;SDS011;25882;51.120;17.248;2023-08-24T08:11:05;9.07;;;3.05;;
40164;SDS011;25882;51.120;17.248;2023-08-24T08:13:31;5.68;;;3.40;;
40164;SDS011;25882;51.120;17.248;2023-08-24T08:16:00;9.52;;;3.25;;
40164;SDS011;25882;51.120;17.248;2023-08-24T08:18:29;6.63;;;3.15;;
40164;SDS011;25882;51.120;17.248;2023-08-24T08:20:57;5.13;;;2.80;;
40164;SDS011;25882;51.120;17.248;2023-08-24T08:23:24;9.23;;;3.55;;
40164;SDS011;25882;51.120;17.248;2023-08-24T08:25:50;6.15;;;3.15;;
40164;SDS011;25882;51.120;17.248;2023-08-24T08:28:16;5.00;;;2.95;;
40164;SDS011;25882;51.120;17.248;2023-08-24T08:30:44;4.68;;;2.72;;
40164;SDS011;25882;51.120;17.248;2023-08-24T08:33:11;6.22;;;3.25;;
40164;SDS011;25882;51.120;17.248;2023-08-24T08:35:39;6.25;;;3.20;;
40164;SDS011;25882;51.120;17.248;2023-08-24T08:38:06;11.07;;;3.22;;
40164;SDS011;25882;51.120;17.248;2023-08-24T08:40:33;6.47;;;3.25;;
40164;SDS011;25882;51.120;17.248;2023-08-24T08:43:02;10.07;;;3.85;;
40164;SDS011;25882;51.120;17.248;2023-08-24T08:45:29;3.25;;;2.15;;
40164;SDS011;25882;51.120;17.248;2023-08-24T08:47:56;8.32;;;4.07;;
40164;SDS011;25882;51.120;17.248;2023-08-24T08:50:23;4.68;;;2.55;;
40164;SDS011;25882;51.120;17.248;2023-08-24T08:52:51;7.10;;;3.38;;
40164;SDS011;25882;51.120;17.248;2023-08-24T08:55:18;6.68;;;3.15;;
40164;SDS011;25882;51.120;17.248;2023-08-24T08:57:45;4.00;;;2.75;;
40164;SDS011;25882;51.120;17.248;2023-08-24T09:00:13;9.00;;;4.60;;
40164;SDS011;25882;51.120;17.248;2023-08-24T09:02:40;5.03;;;2.30;;
40164;SDS011;25882;51.120;17.248;2023-08-24T09:05:08;2.33;;;1.80;;
40164;SDS011;25882;51.120;17.248;2023-08-24T09:07:34;3.55;;;2.55;;
40164;SDS011;25882;51.120;17.248;2023-08-24T09:10:03;3.33;;;2.38;;
40164;SDS011;25882;51.120;17.248;2023-08-24T09:12:31;3.40;;;2.40;;
40164;SDS011;25882;51.120;17.248;2023-08-24T09:14:58;6.03;;;3.70;;
40164;SDS011;25882;51.120;17.248;2023-08-24T09:17:24;4.28;;;2.63;;
40164;SDS011;25882;51.120;17.248;2023-08-24T09:19:53;3.92;;;3.05;;
40164;SDS011;25882;51.120;17.248;2023-08-24T09:22:20;5.10;;;3.10;;
40164;SDS011;25882;51.120;17.248;2023-08-24T09:24:48;4.43;;;2.30;;
40164;SDS011;25882;51.120;17.248;2023-08-24T09:27:17;4.03;;;2.35;;
40164;SDS011;25882;51.120;17.248;2023-08-24T09:29:47;5.38;;;2.65;;
40164;SDS011;25882;51.120;17.248;2023-08-24T09:32:13;5.55;;;2.60;;
40164;SDS011;25882;51.120;17.248;2023-08-24T09:34:40;5.65;;;3.00;;
40164;SDS011;25882;51.120;17.248;2023-08-24T09:37:12;5.57;;;2.38;;
40164;SDS011;25882;51.120;17.248;2023-08-24T09:39:39;4.50;;;2.30;;
40164;SDS011;25882;51.120;17.248;2023-08-24T09:42:05;3.92;;;2.20;;
40164;SDS011;25882;51.120;17.248;2023-08-24T09:44:33;5.90;;;2.20;;
40164;SDS011;25882;51.120;17.248;2023-08-24T09:46:59;3.00;;;1.88;;
40164;SDS011;25882;51.120;17.248;2023-08-24T09:49:25;4.40;;;1.95;;
40164;SDS011;25882;51.120;17.248;2023-08-24T09:51:52;4.13;;;2.45;;
40164;SDS011;25882;51.120;17.248;2023-08-24T09:54:24;4.60;;;2.97;;
40164;SDS011;25882;51.120;17.248;2023-08-24T09:56:52;3.45;;;2.35;;
40164;SDS011;25882;51.120;17.248;2023-08-24T09:59:21;2.58;;;2.05;;
40164;SDS011;25882;51.120;17.248;2023-08-24T10:01:51;4.47;;;1.80;;
40164;SDS011;25882;51.120;17.248;2023-08-24T10:04:21;6.50;;;2.65;;
40164;SDS011;25882;51.120;17.248;2023-08-24T10:06:49;5.80;;;2.03;;
40164;SDS011;25882;51.120;17.248;2023-08-24T10:09:19;3.65;;;2.20;;
40164;SDS011;25882;51.120;17.248;2023-08-24T10:11:49;4.40;;;2.63;;
40164;SDS011;25882;51.120;17.248;2023-08-24T10:14:18;6.15;;;2.58;;
40164;SDS011;25882;51.120;17.248;2023-08-24T10:16:47;7.77;;;3.20;;
40164;SDS011;25882;51.120;17.248;2023-08-24T10:19:15;3.60;;;2.20;;
40164;SDS011;25882;51.120;17.248;2023-08-24T10:21:41;5.43;;;2.58;;
40164;SDS011;25882;51.120;17.248;2023-08-24T10:24:08;3.67;;;2.20;;
40164;SDS011;25882;51.120;17.248;2023-08-24T10:26:35;5.43;;;2.35;;
40164;SDS011;25882;51.120;17.248;2023-08-24T10:29:02;5.25;;;2.45;;
40164;SDS011;25882;51.120;17.248;2023-08-24T10:31:28;6.50;;;3.08;;
40164;SDS011;25882;51.120;17.248;2023-08-24T10:33:55;3.47;;;2.35;;
40164;SDS011;25882;51.120;17.248;2023-08-24T10:36:23;4.57;;;2.38;;
40164;SDS011;25882;51.120;17.248;2023-08-24T10:38:49;4.07;;;2.28;;
40164;SDS011;25882;51.120;17.248;2023-08-24T10:41:16;4.05;;;2.40;;
40164;SDS011;25882;51.120;17.248;2023-08-24T10:43:48;5.55;;;2.78;;
40164;SDS011;25882;51.120;17.248;2023-08-24T10:46:15;4.40;;;2.50;;
40164;SDS011;25882;51.120;17.248;2023-08-24T10:51:23;5.30;;;3.37;;
40164;SDS011;25882;51.120;17.248;2023-08-24T10:53:55;5.97;;;2.60;;
40164;SDS011;25882;51.120;17.248;2023-08-24T10:56:24;4.45;;;2.28;;
40164;SDS011;25882;51.120;17.248;2023-08-24T10:59:09;5.10;;;2.90;;
40164;SDS011;25882;51.120;17.248;2023-08-24T11:01:38;5.03;;;2.58;;
40164;SDS011;25882;51.120;17.248;2023-08-24T11:04:05;3.30;;;2.65;;
40164;SDS011;25882;51.120;17.248;2023-08-24T11:06:50;7.43;;;2.40;;
40164;SDS011;25882;51.120;17.248;2023-08-24T11:09:17;5.80;;;2.70;;
40164;SDS011;25882;51.120;17.248;2023-08-24T11:11:46;2.88;;;2.22;;
40164;SDS011;25882;51.120;17.248;2023-08-24T11:14:22;5.22;;;2.30;;
40164;SDS011;25882;51.120;17.248;2023-08-24T11:16:50;3.55;;;2.30;;
40164;SDS011;25882;51.120;17.248;2023-08-24T11:19:18;4.68;;;2.88;;
40164;SDS011;25882;51.120;17.248;2023-08-24T11:21:45;3.80;;;2.50;;
40164;SDS011;25882;51.120;17.248;2023-08-24T11:24:12;4.95;;;2.08;;
40164;SDS011;25882;51.120;17.248;2023-08-24T11:26:39;9.00;;;3.80;;
40164;SDS011;25882;51.120;17.248;2023-08-24T11:29:07;5.53;;;2.70;;
40164;SDS011;25882;51.120;17.248;2023-08-24T11:31:33;7.03;;;3.45;;
40164;SDS011;25882;51.120;17.248;2023-08-24T11:34:00;5.68;;;3.08;;
40164;SDS011;25882;51.120;17.248;2023-08-24T11:36:26;3.40;;;2.20;;
40164;SDS011;25882;51.120;17.248;2023-08-24T11:38:56;3.58;;;2.50;;
40164;SDS011;25882;51.120;17.248;2023-08-24T11:41:23;3.70;;;1.95;;
40164;SDS011;25882;51.120;17.248;2023-08-24T11:43:49;2.95;;;1.80;;
40164;SDS011;25882;51.120;17.248;2023-08-24T11:46:23;5.72;;;2.60;;
40164;SDS011;25882;51.120;17.248;2023-08-24T11:48:49;6.57;;;2.78;;
40164;SDS011;25882;51.120;17.248;2023-08-24T11:51:16;4.35;;;2.05;;
40164;SDS011;25882;51.120;17.248;2023-08-24T11:53:43;3.80;;;2.22;;
40164;SDS011;25882;51.120;17.248;2023-08-24T11:56:12;4.43;;;1.95;;
40164;SDS011;25882;51.120;17.248;2023-08-24T11:58:39;5.28;;;2.72;;
40164;SDS011;25882;51.120;17.248;2023-08-24T12:01:05;5.20;;;2.50;;
40164;SDS011;25882;51.120;17.248;2023-08-24T12:03:33;4.55;;;2.38;;
40164;SDS011;25882;51.120;17.248;2023-08-24T12:06:00;6.18;;;2.50;;
40164;SDS011;25882;51.120;17.248;2023-08-24T12:08:26;3.72;;;2.33;;
40164;SDS011;25882;51.120;17.248;2023-08-24T12:10:53;3.17;;;2.38;;
40164;SDS011;25882;51.120;17.248;2023-08-24T12:13:20;4.20;;;2.47;;
40164;SDS011;25882;51.120;17.248;2023-08-24T12:15:47;5.53;;;2.72;;
40164;SDS011;25882;51.120;17.248;2023-08-24T12:18:16;4.88;;;2.13;;
40164;SDS011;25882;51.120;17.248;2023-08-24T12:20:43;4.25;;;2.30;;
40164;SDS011;25882;51.120;17.248;2023-08-24T12:23:10;3.70;;;2.33;;
40164;SDS011;25882;51.120;17.248;2023-08-24T12:25:36;4.35;;;2.47;;
40164;SDS011;25882;51.120;17.248;2023-08-24T12:28:10;3.17;;;2.33;;
40164;SDS011;25882;51.120;17.248;2023-08-24T12:30:45;5.68;;;2.80;;
40164;SDS011;25882;51.120;17.248;2023-08-24T12:33:23;6.47;;;2.90;;
40164;SDS011;25882;51.120;17.248;2023-08-24T12:35:50;6.00;;;2.78;;
40164;SDS011;25882;51.120;17.248;2023-08-24T12:38:17;5.28;;;2.20;;
40164;SDS011;25882;51.120;17.248;2023-08-24T12:40:43;6.28;;;2.40;;
40164;SDS011;25882;51.120;17.248;2023-08-24T12:43:09;5.95;;;2.80;;
40164;SDS011;25882;51.120;17.248;2023-08-24T12:45:35;4.57;;;2.80;;
40164;SDS011;25882;51.120;17.248;2023-08-24T12:48:04;5.22;;;2.58;;
40164;SDS011;25882;51.120;17.248;2023-08-24T12:50:30;3.58;;;2.50;;
40164;SDS011;25882;51.120;17.248;2023-08-24T12:52:56;3.92;;;2.28;;
40164;SDS011;25882;51.120;17.248;2023-08-24T12:55:25;3.80;;;2.30;;
40164;SDS011;25882;51.120;17.248;2023-08-24T12:57:52;4.10;;;2.80;;
40164;SDS011;25882;51.120;17.248;2023-08-24T13:00:21;6.20;;;3.25;;
40164;SDS011;25882;51.120;17.248;2023-08-24T13:02:50;6.05;;;2.95;;
40164;SDS011;25882;51.120;17.248;2023-08-24T13:05:18;3.38;;;2.28;;
40164;SDS011;25882;51.120;17.248;2023-08-24T13:07:44;4.97;;;2.42;;
40164;SDS011;25882;51.120;17.248;2023-08-24T13:10:10;4.90;;;2.50;;
40164;SDS011;25882;51.120;17.248;2023-08-24T13:12:37;4.03;;;2.30;;
40164;SDS011;25882;51.120;17.248;2023-08-24T13:15:04;3.80;;;2.40;;
40164;SDS011;25882;51.120;17.248;2023-08-24T13:17:30;5.70;;;2.30;;
40164;SDS011;25882;51.120;17.248;2023-08-24T13:19:58;4.97;;;2.45;;
40164;SDS011;25882;51.120;17.248;2023-08-24T13:22:25;3.75;;;2.40;;
40164;SDS011;25882;51.120;17.248;2023-08-24T13:24:51;5.32;;;2.80;;
40164;SDS011;25882;51.120;17.248;2023-08-24T13:27:18;4.50;;;2.80;;
40164;SDS011;25882;51.120;17.248;2023-08-24T13:29:45;4.55;;;2.40;;
40164;SDS011;25882;51.120;17.248;2023-08-24T13:32:11;4.10;;;2.92;;
40164;SDS011;25882;51.120;17.248;2023-08-24T13:34:37;3.42;;;2.30;;
40164;SDS011;25882;51.120;17.248;2023-08-24T13:37:03;6.40;;;2.75;;
40164;SDS011;25882;51.120;17.248;2023-08-24T13:39:31;3.58;;;2.58;;
40164;SDS011;25882;51.120;17.248;2023-08-24T13:42:01;4.95;;;3.13;;
40164;SDS011;25882;51.120;17.248;2023-08-24T13:44:27;4.05;;;2.47;;
40164;SDS011;25882;51.120;17.248;2023-08-24T13:46:53;3.55;;;2.63;;
40164;SDS011;25882;51.120;17.248;2023-08-24T13:49:19;6.13;;;2.47;;
40164;SDS011;25882;51.120;17.248;2023-08-24T13:51:46;4.43;;;2.47;;
40164;SDS011;25882;51.120;17.248;2023-08-24T13:54:13;4.47;;;2.22;;
40164;SDS011;25882;51.120;17.248;2023-08-24T13:56:41;4.68;;;2.58;;
40164;SDS011;25882;51.120;17.248;2023-08-24T13:59:08;3.33;;;2.17;;
40164;SDS011;25882;51.120;17.248;2023-08-24T14:01:34;3.80;;;2.42;;
40164;SDS011;25882;51.120;17.248;2023-08-24T14:04:01;5.55;;;2.80;;
40164;SDS011;25882;51.120;17.248;2023-08-24T14:06:28;5.82;;;2.55;;
40164;SDS011;25882;51.120;17.248;2023-08-24T14:08:54;3.45;;;2.38;;
40164;SDS011;25882;51.120;17.248;2023-08-24T14:11:20;6.15;;;2.60;;
40164;SDS011;25882;51.120;17.248;2023-08-24T14:13:48;7.03;;;2.67;;
40164;SDS011;25882;51.120;17.248;2023-08-24T14:16:14;5.22;;;2.40;;
40164;SDS011;25882;51.120;17.248;2023-08-24T14:18:40;5.68;;;2.58;;
40164;SDS011;25882;51.120;17.248;2023-08-24T14:21:08;4.90;;;2.70;;
40164;SDS011;25882;51.120;17.248;2023-08-24T14:23:35;6.30;;;2.80;;
40164;SDS011;25882;51.120;17.248;2023-08-24T14:26:01;4.57;;;2.10;;
40164;SDS011;25882;51.120;17.248;2023-08-24T14:28:46;3.28;;;2.20;;
40164;SDS011;25882;51.120;17.248;2023-08-24T14:31:15;3.00;;;2.13;;
40164;SDS011;25882;51.120;17.248;2023-08-24T14:33:41;5.13;;;2.60;;